sensor_id;sensor_type;location;lat;lon;timestamp;pressure;altitude;pressure_sealevel;temperature;humidity
25350;BME280;13302;48.796;11.978;2023-05-11T00:01:37;96589.97;;;13.78;42.27
25350;BME280;13302;48.796;11.978;2023-05-11T00:04:24;96593.91;;;13.77;42.01
25350;BME280;13302;48.796;11.978;2023-05-11T00:07:11;96596.25;;;13.75;42.31
25350;BME280;13302;48.796;11.978;2023-05-11T00:09:58;96589.50;;;13.72;42.01
25350;BME280;13302;48.796;11.978;2023-05-11T00:12:45;96589.09;;;13.70;42.19
25350;BME280;13302;48.796;11.978;2023-05-11T00:15:32;96588.66;;;13.68;42.39
25350;BME280;13302;48.796;11.978;2023-05-11T00:18:20;96589.81;;;13.67;42.28
25350;BME280;13302;48.796;11.978;2023-05-11T00:21:07;96578.66;;;13.64;42.39
25350;BME280;13302;48.796;11.978;2023-05-11T00:23:54;96575.09;;;13.63;42.09
25350;BME280;13302;48.796;11.978;2023-05-11T00:26:41;96581.81;;;13.62;42.47
25350;BME280;13302;48.796;11.978;2023-05-11T00:29:28;96577.88;;;13.63;42.12
25350;BME280;13302;48.796;11.978;2023-05-11T00:32:15;96575.09;;;13.63;42.20
25350;BME280;13302;48.796;11.978;2023-05-11T00:35:02;96572.75;;;13.65;42.38
25350;BME280;13302;48.796;11.978;2023-05-11T00:37:50;96570.78;;;13.66;42.30
25350;BME280;13302;48.796;11.978;2023-05-11T00:40:37;96564.41;;;13.65;42.52
25350;BME280;13302;48.796;11.978;2023-05-11T00:43:24;96571.13;;;13.64;42.40
25350;BME280;13302;48.796;11.978;2023-05-11T00:46:11;96563.16;;;13.63;42.14
25350;BME280;13302;48.796;11.978;2023-05-11T00:48:58;96564.78;;;13.64;42.41
25350;BME280;13302;48.796;11.978;2023-05-11T00:51:45;96562.81;;;13.64;42.39
25350;BME280;13302;48.796;11.978;2023-05-11T00:54:34;96557.25;;;13.64;42.40
25350;BME280;13302;48.796;11.978;2023-05-11T00:57:21;96556.44;;;13.64;42.39
25350;BME280;13302;48.796;11.978;2023-05-11T01:00:09;96556.81;;;13.62;42.20
25350;BME280;13302;48.796;11.978;2023-05-11T01:02:56;96556.03;;;13.62;42.39
25350;BME280;13302;48.796;11.978;2023-05-11T01:06:07;96557.56;;;13.59;42.18
25350;BME280;13302;48.796;11.978;2023-05-11T01:09:08;96552.03;;;13.59;42.50
25350;BME280;13302;48.796;11.978;2023-05-11T01:15:12;96553.16;;;13.55;42.50
25350;BME280;13302;48.796;11.978;2023-05-11T01:18:15;96553.16;;;13.55;42.57
25350;BME280;13302;48.796;11.978;2023-05-11T01:21:05;96548.84;;;13.57;42.54
25350;BME280;13302;48.796;11.978;2023-05-11T01:30:23;96551.56;;;13.54;42.37
25350;BME280;13302;48.796;11.978;2023-05-11T01:33:13;96548.78;;;13.54;42.69
25350;BME280;13302;48.796;11.978;2023-05-11T01:36:05;96547.59;;;13.55;42.51
25350;BME280;13302;48.796;11.978;2023-05-11T01:38:53;96544.47;;;13.56;42.51
25350;BME280;13302;48.796;11.978;2023-05-11T01:41:50;96549.19;;;13.56;42.35
25350;BME280;13302;48.796;11.978;2023-05-11T01:44:41;96544.47;;;13.56;42.66
25350;BME280;13302;48.796;11.978;2023-05-11T01:47:30;96548.03;;;13.57;42.29
25350;BME280;13302;48.796;11.978;2023-05-11T01:50:21;96549.19;;;13.56;42.53
25350;BME280;13302;48.796;11.978;2023-05-11T01:53:10;96548.41;;;13.55;42.67
25350;BME280;13302;48.796;11.978;2023-05-11T01:55:58;96550.81;;;13.57;42.35
25350;BME280;13302;48.796;11.978;2023-05-11T01:58:46;96546.44;;;13.56;42.49
25350;BME280;13302;48.796;11.978;2023-05-11T02:01:38;96547.59;;;13.55;42.41
25350;BME280;13302;48.796;11.978;2023-05-11T02:04:27;96547.59;;;13.55;42.61
25350;BME280;13302;48.796;11.978;2023-05-11T02:07:16;96549.19;;;13.56;42.77
25350;BME280;13302;48.796;11.978;2023-05-11T02:10:05;96554.75;;;13.56;42.91
25350;BME280;13302;48.796;11.978;2023-05-11T02:12:53;96547.59;;;13.55;42.94
25350;BME280;13302;48.796;11.978;2023-05-11T02:15:42;96549.63;;;13.58;42.83
25350;BME280;13302;48.796;11.978;2023-05-11T02:18:31;96542.88;;;13.59;42.66
25350;BME280;13302;48.796;11.978;2023-05-11T02:21:19;96553.63;;;13.60;42.59
25350;BME280;13302;48.796;11.978;2023-05-11T02:24:07;96536.59;;;13.62;42.39
25350;BME280;13302;48.796;11.978;2023-05-11T02:26:55;96545.69;;;13.62;42.86
25350;BME280;13302;48.796;11.978;2023-05-11T02:29:43;96538.97;;;13.63;42.73
25350;BME280;13302;48.796;11.978;2023-05-11T02:32:32;96538.56;;;13.61;42.98
25350;BME280;13302;48.796;11.978;2023-05-11T02:35:32;96540.53;;;13.61;42.49
25350;BME280;13302;48.796;11.978;2023-05-11T02:38:24;96543.31;;;13.61;42.99
25350;BME280;13302;48.796;11.978;2023-05-11T02:41:15;96533.38;;;13.60;42.54
25350;BME280;13302;48.796;11.978;2023-05-11T02:44:06;96538.13;;;13.59;42.66
25350;BME280;13302;48.796;11.978;2023-05-11T02:46:59;96538.94;;;13.60;42.46
25350;BME280;13302;48.796;11.978;2023-05-11T02:49:50;96540.91;;;13.59;42.87
25350;BME280;13302;48.796;11.978;2023-05-11T02:52:43;96531.78;;;13.59;43.05
25350;BME280;13302;48.796;11.978;2023-05-11T02:55:30;96533.38;;;13.60;42.96
25350;BME280;13302;48.796;11.978;2023-05-11T02:58:18;96528.19;;;13.58;42.56
25350;BME280;13302;48.796;11.978;2023-05-11T03:01:11;96525.06;;;13.60;42.79
25350;BME280;13302;48.796;11.978;2023-05-11T03:04:02;96521.06;;;13.57;42.95
25350;BME280;13302;48.796;11.978;2023-05-11T03:06:50;96527.41;;;13.58;42.68
25350;BME280;13302;48.796;11.978;2023-05-11T03:09:37;96516.25;;;13.54;42.95
25350;BME280;13302;48.796;11.978;2023-05-11T03:12:24;96523.81;;;13.54;43.12
25350;BME280;13302;48.796;11.978;2023-05-11T03:15:14;96522.19;;;13.53;42.77
25350;BME280;13302;48.796;11.978;2023-05-11T03:18:05;96517.81;;;13.52;42.82
25350;BME280;13302;48.796;11.978;2023-05-11T03:20:53;96513.06;;;13.52;42.91
25350;BME280;13302;48.796;11.978;2023-05-11T03:23:42;96507.50;;;13.52;43.08
25350;BME280;13302;48.796;11.978;2023-05-11T03:26:32;96501.16;;;13.52;43.07
25350;BME280;13302;48.796;11.978;2023-05-11T03:29:20;96501.91;;;13.49;43.12
25350;BME280;13302;48.796;11.978;2023-05-11T03:32:11;96507.50;;;13.52;43.14
25350;BME280;13302;48.796;11.978;2023-05-11T03:34:59;96508.31;;;13.53;43.28
25350;BME280;13302;48.796;11.978;2023-05-11T03:37:47;96510.28;;;13.52;43.26
25350;BME280;13302;48.796;11.978;2023-05-11T03:40:37;96498.00;;;13.53;42.94
25350;BME280;13302;48.796;11.978;2023-05-11T03:43:27;96508.31;;;13.53;43.02
25350;BME280;13302;48.796;11.978;2023-05-11T03:46:18;96500.78;;;13.53;42.90
25350;BME280;13302;48.796;11.978;2023-05-11T03:49:06;96498.81;;;13.54;43.09
25350;BME280;13302;48.796;11.978;2023-05-11T03:51:56;96498.41;;;13.55;42.94
25350;BME280;13302;48.796;11.978;2023-05-11T03:54:44;96501.59;;;13.54;42.90
25350;BME280;13302;48.796;11.978;2023-05-11T03:57:32;96498.41;;;13.55;42.82
25350;BME280;13302;48.796;11.978;2023-05-11T04:00:20;96499.22;;;13.56;43.07
25350;BME280;13302;48.796;11.978;2023-05-11T04:03:08;96493.66;;;13.56;43.05
25350;BME280;13302;48.796;11.978;2023-05-11T04:05:57;96497.59;;;13.55;42.88
25350;BME280;13302;48.796;11.978;2023-05-11T04:08:44;96493.66;;;13.56;43.29
25350;BME280;13302;48.796;11.978;2023-05-11T04:11:35;96492.81;;;13.52;43.01
25350;BME280;13302;48.796;11.978;2023-05-11T04:14:22;96485.69;;;13.54;43.15
25350;BME280;13302;48.796;11.978;2023-05-11T04:17:09;96492.81;;;13.52;43.08
25350;BME280;13302;48.796;11.978;2023-05-11T04:19:56;96490.84;;;13.52;42.87
25350;BME280;13302;48.796;11.978;2023-05-11T04:22:43;96494.00;;;13.51;42.80
25350;BME280;13302;48.796;11.978;2023-05-11T04:25:31;96492.81;;;13.52;43.04
25350;BME280;13302;48.796;11.978;2023-05-11T04:28:18;96490.03;;;13.52;42.95
25350;BME280;13302;48.796;11.978;2023-05-11T04:31:05;96488.44;;;13.51;43.09
25350;BME280;13302;48.796;11.978;2023-05-11T04:33:52;96491.22;;;13.51;43.26
25350;BME280;13302;48.796;11.978;2023-05-11T04:36:39;96495.59;;;13.52;43.35
25350;BME280;13302;48.796;11.978;2023-05-11T04:39:26;96492.81;;;13.52;43.39
25350;BME280;13302;48.796;11.978;2023-05-11T04:42:13;96492.44;;;13.53;43.42
25350;BME280;13302;48.796;11.978;2023-05-11T04:45:02;96496.41;;;13.52;43.45
25350;BME280;13302;48.796;11.978;2023-05-11T04:47:51;96488.91;;;13.56;43.30
25350;BME280;13302;48.796;11.978;2023-05-11T04:50:38;96491.69;;;13.56;43.33
25350;BME280;13302;48.796;11.978;2023-05-11T04:53:25;96492.84;;;13.55;43.45
25350;BME280;13302;48.796;11.978;2023-05-11T04:56:12;96499.22;;;13.56;43.08
25350;BME280;13302;48.796;11.978;2023-05-11T04:58:59;96500.81;;;13.57;43.16
25350;BME280;13302;48.796;11.978;2023-05-11T05:01:49;96505.19;;;13.58;43.17
25350;BME280;13302;48.796;11.978;2023-05-11T05:04:36;96506.78;;;13.59;43.00
25350;BME280;13302;48.796;11.978;2023-05-11T05:07:23;96500.41;;;13.58;43.41
25350;BME280;13302;48.796;11.978;2023-05-11T05:10:10;96512.34;;;13.59;43.41
25350;BME280;13302;48.796;11.978;2023-05-11T05:12:58;96504.00;;;13.59;43.04
25350;BME280;13302;48.796;11.978;2023-05-11T05:15:45;96503.63;;;13.60;43.16
25350;BME280;13302;48.796;11.978;2023-05-11T05:18:32;96504.81;;;13.59;43.13
25350;BME280;13302;48.796;11.978;2023-05-11T05:21:20;96508.00;;;13.61;43.33
25350;BME280;13302;48.796;11.978;2023-05-11T05:24:07;96502.47;;;13.61;43.22
25350;BME280;13302;48.796;11.978;2023-05-11T05:26:57;96510.78;;;13.61;43.18
25350;BME280;13302;48.796;11.978;2023-05-11T05:29:44;96506.81;;;13.62;43.33
25350;BME280;13302;48.796;11.978;2023-05-11T05:32:31;96500.06;;;13.60;43.51
25350;BME280;13302;48.796;11.978;2023-05-11T05:35:18;96508.00;;;13.61;43.56
25350;BME280;13302;48.796;11.978;2023-05-11T05:38:05;96514.38;;;13.62;43.41
25350;BME280;13302;48.796;11.978;2023-05-11T05:40:52;96513.97;;;13.63;43.51
25350;BME280;13302;48.796;11.978;2023-05-11T05:43:40;96517.56;;;13.64;43.23
25350;BME280;13302;48.796;11.978;2023-05-11T05:46:27;96518.00;;;13.66;43.25
25350;BME280;13302;48.796;11.978;2023-05-11T05:49:14;96516.38;;;13.65;43.33
25350;BME280;13302;48.796;11.978;2023-05-11T05:52:02;96527.16;;;13.70;43.55
25350;BME280;13302;48.796;11.978;2023-05-11T05:54:49;96519.19;;;13.68;43.23
25350;BME280;13302;48.796;11.978;2023-05-11T05:57:36;96520.41;;;13.71;43.33
25350;BME280;13302;48.796;11.978;2023-05-11T06:00:24;96516.47;;;13.72;43.69
25350;BME280;13302;48.796;11.978;2023-05-11T06:03:19;96519.66;;;13.74;43.56
25350;BME280;13302;48.796;11.978;2023-05-11T06:06:07;96517.69;;;13.74;43.40
25350;BME280;13302;48.796;11.978;2023-05-11T06:08:54;96513.72;;;13.75;43.63
25350;BME280;13302;48.796;11.978;2023-05-11T06:11:41;96520.88;;;13.76;43.52
25350;BME280;13302;48.796;11.978;2023-05-11T06:14:28;96520.50;;;13.78;43.51
25350;BME280;13302;48.796;11.978;2023-05-11T06:17:15;96516.53;;;13.79;43.21
25350;BME280;13302;48.796;11.978;2023-05-11T06:20:05;96523.28;;;13.78;43.20
25350;BME280;13302;48.796;11.978;2023-05-11T06:22:52;96519.31;;;13.79;43.14
25350;BME280;13302;48.796;11.978;2023-05-11T06:25:40;96525.66;;;13.79;43.32
25350;BME280;13302;48.796;11.978;2023-05-11T06:28:28;96522.53;;;13.81;43.56
25350;BME280;13302;48.796;11.978;2023-05-11T06:31:19;96520.53;;;13.82;43.20
25350;BME280;13302;48.796;11.978;2023-05-11T06:34:07;96522.91;;;13.83;43.55
25350;BME280;13302;48.796;11.978;2023-05-11T06:36:58;96520.94;;;13.84;43.24
25350;BME280;13302;48.796;11.978;2023-05-11T06:39:46;96524.53;;;13.84;43.49
25350;BME280;13302;48.796;11.978;2023-05-11T06:42:33;96513.84;;;13.86;43.31
25350;BME280;13302;48.796;11.978;2023-05-11T06:45:26;96516.22;;;13.88;43.49
25350;BME280;13302;48.796;11.978;2023-05-11T06:48:13;96517.47;;;13.90;43.57
25350;BME280;13302;48.796;11.978;2023-05-11T06:51:00;96517.47;;;13.90;43.52
25350;BME280;13302;48.796;11.978;2023-05-11T06:53:47;96517.03;;;13.88;43.38
25350;BME280;13302;48.796;11.978;2023-05-11T06:56:34;96517.03;;;13.88;43.26
25350;BME280;13302;48.796;11.978;2023-05-11T06:59:22;96519.81;;;13.88;43.41
25350;BME280;13302;48.796;11.978;2023-05-11T07:02:09;96519.00;;;13.88;43.59
25350;BME280;13302;48.796;11.978;2023-05-11T07:04:56;96515.06;;;13.89;43.39
25350;BME280;13302;48.796;11.978;2023-05-11T07:07:44;96515.06;;;13.89;43.13
25350;BME280;13302;48.796;11.978;2023-05-11T07:10:31;96516.22;;;13.88;43.09
25350;BME280;13302;48.796;11.978;2023-05-11T07:13:18;96520.22;;;13.87;43.36
25350;BME280;13302;48.796;11.978;2023-05-11T07:16:05;96519.81;;;13.88;43.25
25350;BME280;13302;48.796;11.978;2023-05-11T07:18:52;96523.00;;;13.87;43.41
25350;BME280;13302;48.796;11.978;2023-05-11T07:21:39;96521.75;;;13.84;43.38
25350;BME280;13302;48.796;11.978;2023-05-11T07:24:27;96523.34;;;13.85;43.27
25350;BME280;13302;48.796;11.978;2023-05-11T07:27:14;96528.53;;;13.87;43.41
25350;BME280;13302;48.796;11.978;2023-05-11T07:30:02;96520.22;;;13.87;43.52
25350;BME280;13302;48.796;11.978;2023-05-11T07:32:50;96526.94;;;13.86;43.36
25350;BME280;13302;48.796;11.978;2023-05-11T07:35:37;96517.78;;;13.85;43.61
25350;BME280;13302;48.796;11.978;2023-05-11T07:38:24;96524.16;;;13.86;43.33
25350;BME280;13302;48.796;11.978;2023-05-11T07:41:11;96513.84;;;13.86;43.24
25350;BME280;13302;48.796;11.978;2023-05-11T07:43:59;96523.75;;;13.87;43.30
25350;BME280;13302;48.796;11.978;2023-05-11T07:46:47;96522.59;;;13.88;43.33
25350;BME280;13302;48.796;11.978;2023-05-11T07:49:34;96524.19;;;13.89;43.48
25350;BME280;13302;48.796;11.978;2023-05-11T07:52:29;96526.16;;;13.89;43.46
25350;BME280;13302;48.796;11.978;2023-05-11T07:55:16;96516.22;;;13.88;43.32
25350;BME280;13302;48.796;11.978;2023-05-11T07:58:06;96524.19;;;13.89;43.20
25350;BME280;13302;48.796;11.978;2023-05-11T08:00:55;96523.38;;;13.89;43.53
25350;BME280;13302;48.796;11.978;2023-05-11T08:03:42;96521.78;;;13.88;43.34
25350;BME280;13302;48.796;11.978;2023-05-11T08:06:29;96524.97;;;13.86;43.52
25350;BME280;13302;48.796;11.978;2023-05-11T08:09:16;96523.75;;;13.87;43.39
25350;BME280;13302;48.796;11.978;2023-05-11T08:12:04;96522.22;;;13.90;43.57
25350;BME280;13302;48.796;11.978;2023-05-11T08:14:51;96523.81;;;13.91;43.63
25350;BME280;13302;48.796;11.978;2023-05-11T08:17:38;96525.81;;;13.90;43.37
25350;BME280;13302;48.796;11.978;2023-05-11T08:20:25;96525.00;;;13.90;43.40
25350;BME280;13302;48.796;11.978;2023-05-11T08:23:12;96524.59;;;13.91;43.68
25350;BME280;13302;48.796;11.978;2023-05-11T08:26:04;96526.19;;;13.92;43.49
25350;BME280;13302;48.796;11.978;2023-05-11T08:28:51;96521.06;;;13.94;43.55
25350;BME280;13302;48.796;11.978;2023-05-11T08:31:38;96527.44;;;13.95;43.60
25350;BME280;13302;48.796;11.978;2023-05-11T08:34:26;96524.25;;;13.96;43.46
25350;BME280;13302;48.796;11.978;2023-05-11T08:37:13;96527.84;;;13.97;43.63
25350;BME280;13302;48.796;11.978;2023-05-11T08:40:00;96530.25;;;13.98;43.62
25350;BME280;13302;48.796;11.978;2023-05-11T08:42:48;96533.03;;;13.98;43.33
25350;BME280;13302;48.796;11.978;2023-05-11T08:45:41;96529.44;;;13.98;43.52
25350;BME280;13302;48.796;11.978;2023-05-11T08:48:30;96533.84;;;13.99;43.27
25350;BME280;13302;48.796;11.978;2023-05-11T08:51:18;96529.84;;;14.00;43.41
25350;BME280;13302;48.796;11.978;2023-05-11T08:54:05;96534.59;;;13.99;43.39
25350;BME280;13302;48.796;11.978;2023-05-11T08:56:53;96535.81;;;13.98;43.41
25350;BME280;13302;48.796;11.978;2023-05-11T08:59:43;96533.84;;;13.99;43.47
25350;BME280;13302;48.796;11.978;2023-05-11T09:02:32;96533.84;;;13.99;43.50
25350;BME280;13302;48.796;11.978;2023-05-11T09:05:20;96532.63;;;14.00;43.49
25350;BME280;13302;48.796;11.978;2023-05-11T09:08:09;96532.22;;;13.98;43.62
25350;BME280;13302;48.796;11.978;2023-05-11T09:10:58;96534.19;;;13.97;43.31
25350;BME280;13302;48.796;11.978;2023-05-11T09:13:46;96529.00;;;13.96;43.35
25350;BME280;13302;48.796;11.978;2023-05-11T09:16:33;96531.78;;;13.96;43.62
25350;BME280;13302;48.796;11.978;2023-05-11T09:19:23;96530.63;;;13.97;43.43
25350;BME280;13302;48.796;11.978;2023-05-11T09:22:11;96535.81;;;13.98;43.62
25350;BME280;13302;48.796;11.978;2023-05-11T09:25:00;96535.38;;;13.96;43.56
25350;BME280;13302;48.796;11.978;2023-05-11T09:27:48;96545.31;;;13.97;43.42
25350;BME280;13302;48.796;11.978;2023-05-11T09:30:35;96532.19;;;13.94;43.62
25350;BME280;13302;48.796;11.978;2023-05-11T09:33:23;96530.97;;;13.92;43.49
25350;BME280;13302;48.796;11.978;2023-05-11T09:36:22;96534.50;;;13.89;43.63
25350;BME280;13302;48.796;11.978;2023-05-11T09:39:09;96528.94;;;13.89;43.88
25350;BME280;13302;48.796;11.978;2023-05-11T09:42:15;96530.13;;;13.88;43.55
25350;BME280;13302;48.796;11.978;2023-05-11T09:45:03;96525.00;;;13.90;43.83
25350;BME280;13302;48.796;11.978;2023-05-11T09:47:50;96536.09;;;13.90;43.57
25350;BME280;13302;48.796;11.978;2023-05-11T09:50:37;96528.56;;;13.90;44.03
25350;BME280;13302;48.796;11.978;2023-05-11T09:53:36;96525.81;;;13.90;43.94
25350;BME280;13302;48.796;11.978;2023-05-11T09:56:43;96526.63;;;13.94;44.15
25350;BME280;13302;48.796;11.978;2023-05-11T09:59:39;96528.66;;;13.97;44.05
25350;BME280;13302;48.796;11.978;2023-05-11T10:02:28;96527.88;;;14.00;43.92
25350;BME280;13302;48.796;11.978;2023-05-11T10:05:16;96525.13;;;14.04;43.68
25350;BME280;13302;48.796;11.978;2023-05-11T10:08:04;96531.13;;;14.06;43.71
25350;BME280;13302;48.796;11.978;2023-05-11T10:10:52;96525.97;;;14.08;44.02
25350;BME280;13302;48.796;11.978;2023-05-11T10:13:42;96525.59;;;14.09;44.01
25350;BME280;13302;48.796;11.978;2023-05-11T10:16:30;96524.03;;;14.12;44.00
25350;BME280;13302;48.796;11.978;2023-05-11T10:19:18;96524.47;;;14.14;44.11
25350;BME280;13302;48.796;11.978;2023-05-11T10:22:05;96527.66;;;14.16;43.92
25350;BME280;13302;48.796;11.978;2023-05-11T10:24:54;96516.97;;;14.18;43.81
25350;BME280;13302;48.796;11.978;2023-05-11T10:27:42;96517.78;;;14.18;43.92
25350;BME280;13302;48.796;11.978;2023-05-11T10:30:30;96522.16;;;14.19;43.73
25350;BME280;13302;48.796;11.978;2023-05-11T10:33:19;96520.56;;;14.18;43.68
25350;BME280;13302;48.796;11.978;2023-05-11T10:36:07;96520.91;;;14.17;43.57
25350;BME280;13302;48.796;11.978;2023-05-11T10:38:54;96520.91;;;14.17;43.50
25350;BME280;13302;48.796;11.978;2023-05-11T10:42:03;96515.34;;;14.13;43.59
25350;BME280;13302;48.796;11.978;2023-05-11T10:45:15;96522.06;;;14.12;43.80
25350;BME280;13302;48.796;11.978;2023-05-11T10:48:26;96518.06;;;14.10;43.88
25350;BME280;13302;48.796;11.978;2023-05-11T10:51:32;96518.41;;;14.08;43.85
25350;BME280;13302;48.796;11.978;2023-05-11T10:57:47;96521.16;;;14.05;43.62
25350;BME280;13302;48.796;11.978;2023-05-11T11:03:56;96527.16;;;14.07;44.18
25350;BME280;13302;48.796;11.978;2023-05-11T11:06:44;96522.41;;;14.07;43.93
25350;BME280;13302;48.796;11.978;2023-05-11T11:12:39;96521.56;;;14.03;43.79
25350;BME280;13302;48.796;11.978;2023-05-11T11:18:41;96524.34;;;14.03;44.07
25350;BME280;13302;48.796;11.978;2023-05-11T11:21:39;96529.09;;;14.03;44.12
25350;BME280;13302;48.796;11.978;2023-05-11T11:30:29;96524.75;;;14.05;43.83
25350;BME280;13302;48.796;11.978;2023-05-11T11:36:07;96523.97;;;14.08;43.86
25350;BME280;13302;48.796;11.978;2023-05-11T11:38:58;96523.19;;;14.08;43.58
25350;BME280;13302;48.796;11.978;2023-05-11T11:42:02;96522.41;;;14.07;43.88
25350;BME280;13302;48.796;11.978;2023-05-11T11:44:49;96527.16;;;14.07;44.06
25350;BME280;13302;48.796;11.978;2023-05-11T11:47:36;96522.41;;;14.07;43.82
25350;BME280;13302;48.796;11.978;2023-05-11T11:50:26;96526.75;;;14.08;44.08
25350;BME280;13302;48.796;11.978;2023-05-11T11:59:10;96526.47;;;14.17;44.17
25350;BME280;13302;48.796;11.978;2023-05-11T12:02:00;96521.34;;;14.19;43.70
25350;BME280;13302;48.796;11.978;2023-05-11T12:04:55;96524.94;;;14.19;43.87
25350;BME280;13302;48.796;11.978;2023-05-11T12:07:49;96524.13;;;14.19;43.81
25350;BME280;13302;48.796;11.978;2023-05-11T12:10:37;96525.72;;;14.20;43.76
25350;BME280;13302;48.796;11.978;2023-05-11T12:13:24;96529.28;;;14.20;44.08
25350;BME280;13302;48.796;11.978;2023-05-11T12:16:16;96520.94;;;14.20;44.13
25350;BME280;13302;48.796;11.978;2023-05-11T12:19:04;96524.16;;;14.22;43.85
25350;BME280;13302;48.796;11.978;2023-05-11T12:21:51;96520.22;;;14.23;44.10
25350;BME280;13302;48.796;11.978;2023-05-11T12:24:39;96520.59;;;14.25;43.95
25350;BME280;13302;48.796;11.978;2023-05-11T12:27:27;96522.25;;;14.30;43.88
25350;BME280;13302;48.796;11.978;2023-05-11T12:30:23;96513.91;;;14.30;44.37
25350;BME280;13302;48.796;11.978;2023-05-11T12:33:13;96527.03;;;14.33;44.26
25350;BME280;13302;48.796;11.978;2023-05-11T12:36:01;96517.94;;;14.36;43.96
25350;BME280;13302;48.796;11.978;2023-05-11T12:38:48;96512.78;;;14.38;44.23
25350;BME280;13302;48.796;11.978;2023-05-11T12:41:36;96513.97;;;14.41;43.99
25350;BME280;13302;48.796;11.978;2023-05-11T12:44:24;96512.81;;;14.42;43.87
25350;BME280;13302;48.796;11.978;2023-05-11T12:47:12;96517.19;;;14.43;43.82
25350;BME280;13302;48.796;11.978;2023-05-11T12:49:59;96515.59;;;14.45;43.91
25350;BME280;13302;48.796;11.978;2023-05-11T12:52:47;96507.25;;;14.45;43.76
25350;BME280;13302;48.796;11.978;2023-05-11T12:55:35;96508.88;;;14.46;43.77
25350;BME280;13302;48.796;11.978;2023-05-11T12:58:23;96512.47;;;14.47;43.74
25350;BME280;13302;48.796;11.978;2023-05-11T13:01:10;96510.84;;;14.46;44.04
25350;BME280;13302;48.796;11.978;2023-05-11T13:03:57;96514.03;;;14.44;43.86
25350;BME280;13302;48.796;11.978;2023-05-11T13:06:44;96502.50;;;14.46;44.06
25350;BME280;13302;48.796;11.978;2023-05-11T13:09:32;96505.72;;;14.48;43.72
25350;BME280;13302;48.796;11.978;2023-05-11T13:12:19;96501.72;;;14.49;44.04
25350;BME280;13302;48.796;11.978;2023-05-11T13:15:10;96502.50;;;14.46;43.78
25350;BME280;13302;48.796;11.978;2023-05-11T13:18:01;96498.53;;;14.47;43.88
25350;BME280;13302;48.796;11.978;2023-05-11T13:21:03;96502.13;;;14.47;43.90
25350;BME280;13302;48.796;11.978;2023-05-11T13:23:50;96486.66;;;14.50;44.18
25350;BME280;13302;48.796;11.978;2023-05-11T13:26:40;96493.81;;;14.51;43.98
25350;BME280;13302;48.796;11.978;2023-05-11T13:29:27;96495.41;;;14.52;44.00
25350;BME280;13302;48.796;11.978;2023-05-11T13:32:14;96497.00;;;14.53;43.77
25350;BME280;13302;48.796;11.978;2023-05-11T13:35:03;96496.22;;;14.52;43.94
25350;BME280;13302;48.796;11.978;2023-05-11T13:37:51;96488.66;;;14.53;43.88
25350;BME280;13302;48.796;11.978;2023-05-11T13:40:38;96491.03;;;14.51;44.12
25350;BME280;13302;48.796;11.978;2023-05-11T13:43:25;96490.22;;;14.50;44.21
25350;BME280;13302;48.796;11.978;2023-05-11T13:46:12;96493.38;;;14.49;43.83
25350;BME280;13302;48.796;11.978;2023-05-11T13:48:59;96488.59;;;14.46;43.81
25350;BME280;13302;48.796;11.978;2023-05-11T13:51:46;96494.94;;;14.43;43.94
25350;BME280;13302;48.796;11.978;2023-05-11T13:54:33;96492.53;;;14.41;44.14
25350;BME280;13302;48.796;11.978;2023-05-11T13:57:20;96488.56;;;14.39;44.23
25350;BME280;13302;48.796;11.978;2023-05-11T14:00:08;96488.94;;;14.37;44.27
25350;BME280;13302;48.796;11.978;2023-05-11T14:02:58;96488.53;;;14.35;44.33
25350;BME280;13302;48.796;11.978;2023-05-11T14:05:49;96491.69;;;14.34;44.22
25350;BME280;13302;48.796;11.978;2023-05-11T14:08:37;96486.91;;;14.34;44.22
25350;BME280;13302;48.796;11.978;2023-05-11T14:11:24;96491.69;;;14.34;44.36
25350;BME280;13302;48.796;11.978;2023-05-11T14:14:11;96481.34;;;14.34;44.13
25350;BME280;13302;48.796;11.978;2023-05-11T14:16:58;96497.66;;;14.36;44.44
25350;BME280;13302;48.796;11.978;2023-05-11T14:19:45;96489.34;;;14.39;44.57
25350;BME280;13302;48.796;11.978;2023-05-11T14:22:33;96499.31;;;14.40;44.13
25350;BME280;13302;48.796;11.978;2023-05-11T14:25:20;96496.13;;;14.42;44.19
25350;BME280;13302;48.796;11.978;2023-05-11T14:28:07;96495.75;;;14.43;44.01
25350;BME280;13302;48.796;11.978;2023-05-11T14:30:54;96495.31;;;14.41;43.84
25350;BME280;13302;48.796;11.978;2023-05-11T14:33:42;96496.53;;;14.40;43.82
25350;BME280;13302;48.796;11.978;2023-05-11T14:36:29;96497.69;;;14.39;44.09
25350;BME280;13302;48.796;11.978;2023-05-11T14:39:17;96494.91;;;14.39;43.69
25350;BME280;13302;48.796;11.978;2023-05-11T14:42:04;96495.28;;;14.38;43.84
25350;BME280;13302;48.796;11.978;2023-05-11T14:44:51;96502.47;;;14.39;43.72
25350;BME280;13302;48.796;11.978;2023-05-11T14:47:38;96503.59;;;14.34;43.73
25350;BME280;13302;48.796;11.978;2023-05-11T14:50:27;96503.59;;;14.34;43.50
25350;BME280;13302;48.796;11.978;2023-05-11T14:53:14;96500.41;;;14.32;43.44
25350;BME280;13302;48.796;11.978;2023-05-11T14:56:01;96507.16;;;14.31;43.69
25350;BME280;13302;48.796;11.978;2023-05-11T14:58:48;96506.72;;;14.25;43.76
25350;BME280;13302;48.796;11.978;2023-05-11T15:01:35;96502.31;;;14.24;43.72
25350;BME280;13302;48.796;11.978;2023-05-11T15:04:22;96509.09;;;14.23;43.80
25350;BME280;13302;48.796;11.978;2023-05-11T15:07:09;96514.59;;;14.20;43.91
25350;BME280;13302;48.796;11.978;2023-05-11T15:09:56;96511.78;;;14.16;43.78
25350;BME280;13302;48.796;11.978;2023-05-11T15:12:43;96521.69;;;14.14;43.97
25350;BME280;13302;48.796;11.978;2023-05-11T15:15:30;96517.69;;;14.11;43.90
25350;BME280;13302;48.796;11.978;2023-05-11T15:18:17;96522.81;;;14.09;44.05
25350;BME280;13302;48.796;11.978;2023-05-11T15:21:04;96525.97;;;14.08;44.20